Time;durP1;ratioP1;P1;durP2;ratioP2;P2;SDS_P1;SDS_P2;PMS_P1;PMS_P2;Temp;Humidity;BMP_temperature;BMP_pressure;BME280_temperature;BME280_humidity;BME280_pressure;Samples;Min_cycle;Max_cycle;Signal;HPM_P1;HPM_P2
2022/06/30 00:01:27;;;;;;;5.25;4.20;;;20.60;99.90;;;;;;5133407;27;20035;-70
2022/06/30 00:03:52;;;;;;;5.35;4.35;;;20.60;99.90;;;;;;5132621;27;20047;-70
2022/06/30 00:06:18;;;;;;;5.45;4.53;;;20.50;99.90;;;;;;5132744;27;20050;-69
2022/06/30 00:08:43;;;;;;;4.68;3.92;;;20.50;99.90;;;;;;5134793;27;20410;-70
2022/06/30 00:11:09;;;;;;;4.18;3.70;;;20.50;99.90;;;;;;5135988;27;20073;-70
2022/06/30 00:13:37;;;;;;;3.90;3.60;;;20.40;99.90;;;;;;5135827;27;20035;-70
2022/06/30 00:16:03;;;;;;;4.15;3.75;;;20.40;99.90;;;;;;5132371;27;20046;-70
2022/06/30 00:18:29;;;;;;;3.60;3.30;;;20.40;99.90;;;;;;5125650;27;20038;-70
2022/06/30 00:20:55;;;;;;;3.92;3.63;;;20.30;99.90;;;;;;5154346;27;20042;-70
2022/06/30 00:23:21;;;;;;;4.35;3.60;;;20.30;99.90;;;;;;5130781;27;20027;-69
2022/06/30 00:25:46;;;;;;;4.13;3.83;;;20.20;99.90;;;;;;5135559;27;20078;-70
2022/06/30 00:28:12;;;;;;;3.42;3.13;;;20.20;99.90;;;;;;5135570;27;20043;-70
2022/06/30 00:30:38;;;;;;;4.13;3.42;;;20.10;99.90;;;;;;5118645;27;20391;-70
2022/06/30 00:33:03;;;;;;;4.32;3.15;;;20.10;99.90;;;;;;5123083;27;20049;-70
2022/06/30 00:35:29;;;;;;;3.95;3.40;;;20.10;99.90;;;;;;5122763;27;20422;-70
2022/06/30 00:37:55;;;;;;;4.07;3.15;;;20.00;99.90;;;;;;5135129;27;20049;-69
2022/06/30 00:40:21;;;;;;;4.30;3.90;;;20.00;99.90;;;;;;5125334;27;20171;-70
2022/06/30 00:42:47;;;;;;;4.25;3.70;;;19.90;99.90;;;;;;5100335;27;20497;-70
2022/06/30 00:45:12;;;;;;;3.47;3.17;;;19.90;99.90;;;;;;5135443;27;20046;-70
2022/06/30 00:47:38;;;;;;;3.95;3.65;;;19.90;99.90;;;;;;5135378;27;20483;-70
2022/06/30 00:50:04;;;;;;;3.55;3.25;;;19.90;99.90;;;;;;5129823;27;20066;-69
2022/06/30 00:52:34;;;;;;;4.03;3.40;;;19.80;99.90;;;;;;5114649;27;20046;-70
2022/06/30 00:55:01;;;;;;;4.30;3.83;;;19.80;99.90;;;;;;5114204;27;20096;-70
2022/06/30 00:57:28;;;;;;;4.30;4.00;;;19.80;99.90;;;;;;5101262;27;20133;-70
2022/06/30 00:59:57;;;;;;;4.00;3.70;;;19.70;99.90;;;;;;5134480;27;20066;-70
2022/06/30 01:02:23;;;;;;;3.90;3.58;;;19.70;99.90;;;;;;5153702;27;20035;-70
2022/06/30 01:04:53;;;;;;;3.90;3.45;;;19.60;99.90;;;;;;5134732;27;20052;-70
2022/06/30 01:07:21;;;;;;;4.95;3.92;;;19.60;99.90;;;;;;5113274;27;20047;-70
2022/06/30 01:12:43;;;;;;;4.05;3.70;;;19.40;99.90;;;;;;5131262;27;20046;-70
2022/06/30 01:15:09;;;;;;;4.70;4.30;;;19.30;99.90;;;;;;5133698;27;20046;-70
2022/06/30 01:17:35;;;;;;;4.28;3.97;;;19.30;99.90;;;;;;5133416;27;20045;-70
2022/06/30 01:20:01;;;;;;;4.53;3.90;;;19.20;99.90;;;;;;5132719;27;20438;-70
2022/06/30 01:22:27;;;;;;;4.53;3.55;;;19.20;99.90;;;;;;5127812;27;20365;-70
2022/06/30 01:24:53;;;;;;;5.10;3.88;;;19.10;99.90;;;;;;5130934;27;20055;-70
2022/06/30 01:27:19;;;;;;;4.05;3.75;;;19.10;99.90;;;;;;5131443;27;20047;-69
2022/06/30 01:29:45;;;;;;;5.10;4.43;;;19.10;99.90;;;;;;5131195;27;20418;-69
2022/06/30 01:32:11;;;;;;;3.97;3.67;;;19.10;99.90;;;;;;5131111;27;20058;-69
2022/06/30 01:34:36;;;;;;;4.18;3.88;;;19.10;99.90;;;;;;5130674;27;20039;-69
2022/06/30 01:37:03;;;;;;;4.25;3.85;;;19.20;99.90;;;;;;5133457;27;20371;-69
2022/06/30 01:39:29;;;;;;;3.95;3.65;;;19.20;99.90;;;;;;5130551;27;20043;-70
2022/06/30 01:41:55;;;;;;;4.10;3.70;;;19.20;99.90;;;;;;5134676;27;20057;-70
2022/06/30 01:44:20;;;;;;;6.20;4.07;;;19.10;99.90;;;;;;5134329;27;20499;-70
2022/06/30 01:46:48;;;;;;;4.68;4.10;;;19.10;99.90;;;;;;5134711;27;20034;-70
2022/06/30 01:49:14;;;;;;;3.53;3.22;;;19.10;99.90;;;;;;5134259;27;20038;-70
2022/06/30 01:51:40;;;;;;;4.53;3.60;;;19.10;99.90;;;;;;5130934;27;20051;-70
2022/06/30 01:54:05;;;;;;;4.68;3.63;;;19.10;99.90;;;;;;5132924;27;20480;-70
2022/06/30 01:56:31;;;;;;;4.50;4.10;;;19.10;99.90;;;;;;5118365;28;20035;-70
2022/06/30 01:58:56;;;;;;;4.38;3.40;;;19.10;99.90;;;;;;5113811;28;20089;-70
2022/06/30 02:01:22;;;;;;;4.68;4.28;;;19.10;99.90;;;;;;5130633;28;20035;-70
2022/06/30 02:03:47;;;;;;;4.22;3.80;;;19.10;99.90;;;;;;5131127;28;20035;-70
2022/06/30 02:06:13;;;;;;;3.90;3.50;;;19.10;99.90;;;;;;5130715;28;20047;-70
2022/06/30 02:08:38;;;;;;;4.15;3.80;;;19.10;99.90;;;;;;5113493;28;20043;-70
2022/06/30 02:11:04;;;;;;;4.40;4.00;;;19.00;99.90;;;;;;5126440;27;20043;-70
2022/06/30 02:13:30;;;;;;;5.65;3.70;;;19.00;99.90;;;;;;5133908;27;20491;-69
2022/06/30 02:15:55;;;;;;;3.78;3.38;;;19.00;99.90;;;;;;5134034;27;20389;-70
2022/06/30 02:18:21;;;;;;;4.35;3.95;;;18.90;99.90;;;;;;5113949;27;20054;-70
2022/06/30 02:20:47;;;;;;;4.60;3.60;;;18.90;99.90;;;;;;5130843;27;20041;-69
2022/06/30 02:23:12;;;;;;;5.50;3.67;;;18.90;99.90;;;;;;5132283;27;20081;-70
2022/06/30 02:25:38;;;;;;;3.55;3.25;;;18.80;99.90;;;;;;5135551;27;20046;-70
2022/06/30 02:28:05;;;;;;;4.00;3.50;;;18.80;99.90;;;;;;5137679;27;20050;-70
2022/06/30 02:30:31;;;;;;;5.70;3.53;;;18.70;99.90;;;;;;5120706;27;20070;-70
2022/06/30 02:32:57;;;;;;;4.03;3.58;;;18.80;99.90;;;;;;5134736;27;20118;-70
2022/06/30 02:35:23;;;;;;;3.58;3.28;;;18.70;99.90;;;;;;5137510;27;20555;-69
2022/06/30 02:37:49;;;;;;;5.45;3.50;;;18.70;99.90;;;;;;5137801;27;20106;-70
2022/06/30 02:40:14;;;;;;;4.20;3.75;;;18.70;99.90;;;;;;5133156;27;20031;-70
2022/06/30 02:42:40;;;;;;;4.07;3.67;;;18.70;99.90;;;;;;5126514;27;20076;-70
2022/06/30 02:45:06;;;;;;;4.25;3.85;;;18.70;99.90;;;;;;5116988;27;20186;-70
2022/06/30 02:47:34;;;;;;;3.67;3.38;;;18.60;99.90;;;;;;5120695;27;20085;-70
2022/06/30 02:50:03;;;;;;;4.63;4.03;;;18.60;99.90;;;;;;5134312;27;20074;-70
2022/06/30 02:52:30;;;;;;;4.35;3.95;;;18.60;99.90;;;;;;5131081;27;20039;-70
2022/06/30 02:54:56;;;;;;;5.05;3.67;;;18.60;99.90;;;;;;5137591;27;20388;-70
2022/06/30 02:57:21;;;;;;;4.22;3.80;;;18.50;99.90;;;;;;5155823;27;20044;-70
2022/06/30 02:59:47;;;;;;;5.07;3.55;;;18.50;99.90;;;;;;5137338;27;20031;-70
2022/06/30 03:02:12;;;;;;;6.65;3.90;;;18.50;99.90;;;;;;5137190;27;20043;-70
2022/06/30 03:04:38;;;;;;;5.47;3.63;;;18.40;99.90;;;;;;5156132;27;20035;-70
2022/06/30 03:07:04;;;;;;;4.30;3.92;;;18.40;99.90;;;;;;5132123;27;20047;-70
2022/06/30 03:09:29;;;;;;;4.22;3.80;;;18.40;99.90;;;;;;5127315;27;20154;-70
2022/06/30 03:11:55;;;;;;;4.40;4.00;;;18.40;99.90;;;;;;5115923;27;20380;-70
2022/06/30 03:14:20;;;;;;;4.43;3.92;;;18.30;99.90;;;;;;5126014;27;20505;-70
2022/06/30 03:16:46;;;;;;;4.30;3.92;;;18.30;99.90;;;;;;5117437;27;20137;-70
2022/06/30 03:19:12;;;;;;;4.80;4.40;;;18.30;99.90;;;;;;5126106;27;20050;-70
2022/06/30 03:21:37;;;;;;;5.88;4.43;;;18.30;99.90;;;;;;5131604;27;20035;-70
2022/06/30 03:24:03;;;;;;;5.47;4.50;;;18.20;99.90;;;;;;5131629;27;20404;-70
2022/06/30 03:26:29;;;;;;;4.63;4.20;;;18.10;99.90;;;;;;5132326;27;20149;-70
2022/06/30 03:28:54;;;;;;;5.43;4.40;;;18.10;99.90;;;;;;5116303;27;20514;-70
2022/06/30 03:31:20;;;;;;;6.60;4.60;;;18.10;99.90;;;;;;5133091;27;20043;-69
2022/06/30 03:33:45;;;;;;;6.78;4.72;;;18.10;99.90;;;;;;5127435;27;20122;-69
2022/06/30 03:36:11;;;;;;;4.85;4.45;;;18.10;99.90;;;;;;5135966;27;20034;-69
2022/06/30 03:38:36;;;;;;;5.18;4.68;;;18.10;99.90;;;;;;5129944;22;20560;-73
2022/06/30 03:41:02;;;;;;;5.22;4.82;;;18.00;99.90;;;;;;5090448;28;20050;-73
2022/06/30 03:43:28;;;;;;;5.55;4.97;;;18.00;99.90;;;;;;5076699;28;20044;-73
2022/06/30 03:45:53;;;;;;;6.68;5.30;;;18.00;99.90;;;;;;5094093;28;20046;-73
2022/06/30 03:48:19;;;;;;;5.18;4.70;;;18.00;99.90;;;;;;5093658;28;20092;-73
2022/06/30 03:50:45;;;;;;;14.05;5.57;;;18.00;99.90;;;;;;5111522;28;20091;-73
2022/06/30 03:53:10;;;;;;;5.75;5.25;;;17.90;99.90;;;;;;5078199;28;20043;-73
2022/06/30 03:55:39;;;;;;;6.32;4.93;;;17.90;99.90;;;;;;5112348;28;20036;-73
2022/06/30 03:58:08;;;;;;;5.72;5.10;;;17.90;99.90;;;;;;5091372;28;20071;-73
2022/06/30 04:00:34;;;;;;;5.53;5.03;;;17.90;99.90;;;;;;5095028;28;20040;-73
2022/06/30 04:03:02;;;;;;;5.25;4.80;;;17.90;99.90;;;;;;5095093;28;20068;-73
2022/06/30 04:05:27;;;;;;;6.70;5.30;;;17.90;99.90;;;;;;5094822;27;20046;-73
2022/06/30 04:07:53;;;;;;;6.78;4.97;;;17.90;99.90;;;;;;5102701;28;20044;-73
2022/06/30 04:10:18;;;;;;;6.15;5.35;;;17.90;99.90;;;;;;5095173;28;20035;-73
2022/06/30 04:12:44;;;;;;;10.20;5.80;;;17.90;99.90;;;;;;5097898;28;20064;-73
2022/06/30 04:15:10;;;;;;;6.38;5.07;;;17.90;99.90;;;;;;5077914;28;20481;-73
2022/06/30 04:17:35;;;;;;;5.70;5.15;;;18.00;99.90;;;;;;5094431;28;20404;-73
2022/06/30 04:20:03;;;;;;;5.60;5.10;;;18.00;99.90;;;;;;5077701;28;20040;-73
2022/06/30 04:22:28;;;;;;;6.10;4.68;;;18.00;99.90;;;;;;5106189;28;20497;-73
2022/06/30 04:24:54;;;;;;;8.98;5.50;;;18.00;99.90;;;;;;5094568;28;20047;-73
2022/06/30 04:27:20;;;;;;;14.82;5.82;;;18.10;99.90;;;;;;5119138;27;20389;-72
2022/06/30 04:29:45;;;;;;;7.72;4.95;;;18.10;99.90;;;;;;5086759;28;20032;-73
2022/06/30 04:34:55;;;;;;;6.13;5.30;;;18.10;99.90;;;;;;5094206;28;20043;-73
2022/06/30 04:37:21;;;;;;;5.57;5.05;;;18.20;99.90;;;;;;5093166;28;20469;-73
2022/06/30 04:39:46;;;;;;;5.82;4.97;;;18.30;99.90;;;;;;5111933;28;20079;-73
2022/06/30 04:42:12;;;;;;;8.52;4.82;;;18.30;99.90;;;;;;5110007;28;20048;-72
2022/06/30 04:44:37;;;;;;;5.25;4.82;;;18.40;99.90;;;;;;5092799;28;20437;-73
2022/06/30 04:47:03;;;;;;;5.15;4.70;;;18.40;99.90;;;;;;5070631;28;20039;-73
2022/06/30 04:49:29;;;;;;;8.60;4.93;;;18.50;99.90;;;;;;5111344;28;20481;-73
2022/06/30 04:51:54;;;;;;;4.88;4.47;;;18.50;99.90;;;;;;5076743;28;20089;-73
2022/06/30 04:54:20;;;;;;;7.05;5.50;;;18.60;99.90;;;;;;5094015;28;20036;-73
2022/06/30 04:56:45;;;;;;;5.65;5.05;;;18.60;99.90;;;;;;5094300;28;20047;-73
2022/06/30 04:59:11;;;;;;;6.07;5.47;;;18.70;99.90;;;;;;5092733;28;20042;-73
2022/06/30 05:01:36;;;;;;;6.10;5.50;;;18.70;99.90;;;;;;5094465;28;20060;-73
2022/06/30 05:04:02;;;;;;;7.00;5.60;;;18.80;99.90;;;;;;5092969;28;20043;-73
2022/06/30 05:06:27;;;;;;;6.30;5.70;;;18.80;99.90;;;;;;5094177;28;20482;-73
2022/06/30 05:08:53;;;;;;;6.97;5.22;;;18.80;99.90;;;;;;5093910;28;20087;-73
2022/06/30 05:11:18;;;;;;;8.02;5.82;;;18.80;99.90;;;;;;5112468;28;20042;-73
2022/06/30 05:13:44;;;;;;;5.57;5.18;;;18.70;99.90;;;;;;5065098;28;20097;-73
2022/06/30 05:16:10;;;;;;;8.60;5.28;;;18.80;99.90;;;;;;5087041;28;20039;-73
2022/06/30 05:18:35;;;;;;;6.60;5.47;;;18.80;99.90;;;;;;5088928;28;20036;-73
2022/06/30 05:21:01;;;;;;;7.05;5.20;;;18.90;99.90;;;;;;5083980;28;20038;-73
2022/06/30 05:23:27;;;;;;;9.70;5.38;;;18.90;99.90;;;;;;5073437;28;20036;-74
2022/06/30 05:28:36;;;;;;;7.72;5.90;;;19.10;99.90;;;;;;5093126;28;20075;-73
2022/06/30 05:31:02;;;;;;;5.78;5.28;;;19.20;99.90;;;;;;5093441;28;20071;-74
2022/06/30 05:33:27;;;;;;;8.60;5.80;;;19.20;99.90;;;;;;5091238;28;20024;-74
2022/06/30 05:35:54;;;;;;;6.90;5.55;;;19.30;99.90;;;;;;5092882;28;20480;-74
2022/06/30 05:38:22;;;;;;;6.05;5.43;;;19.40;99.90;;;;;;5078605;28;20159;-74
2022/06/30 05:40:48;;;;;;;7.03;5.30;;;19.50;99.90;;;;;;5073350;28;20446;-74
2022/06/30 05:43:15;;;;;;;6.90;5.47;;;19.60;99.90;;;;;;5110460;27;20061;-74
2022/06/30 05:45:41;;;;;;;5.72;5.32;;;19.70;99.90;;;;;;5113865;27;20083;-74
2022/06/30 05:48:07;;;;;;;6.07;5.47;;;19.80;99.90;;;;;;5132476;27;20043;-74
2022/06/30 05:50:33;;;;;;;5.32;4.93;;;20.10;99.90;;;;;;5094297;28;20070;-74
2022/06/30 05:52:58;;;;;;;5.43;4.78;;;21.10;99.90;;;;;;5092581;28;20043;-74
2022/06/30 05:55:24;;;;;;;6.20;5.45;;;22.30;99.90;;;;;;5083966;28;20088;-74
2022/06/30 05:57:58;;;;;;;4.90;4.40;;;23.20;99.90;;;;;;5094739;27;20491;-74
2022/06/30 06:00:27;;;;;;;6.85;4.97;;;24.20;99.90;;;;;;5097894;27;20043;-74
2022/06/30 06:02:53;;;;;;;5.20;4.70;;;25.20;98.30;;;;;;5099863;28;20048;-75
2022/06/30 06:05:19;;;;;;;5.38;4.38;;;25.80;95.80;;;;;;5099632;28;20046;-75
2022/06/30 06:07:45;;;;;;;4.80;4.40;;;26.50;96.20;;;;;;5083084;28;20047;-75
2022/06/30 06:10:13;;;;;;;5.78;4.35;;;27.00;94.60;;;;;;5100030;28;20531;-74
2022/06/30 06:12:39;;;;;;;4.53;4.10;;;27.10;93.10;;;;;;5098392;28;20454;-74
2022/06/30 06:15:05;;;;;;;4.47;4.00;;;27.40;93.00;;;;;;5093873;28;20110;-74
2022/06/30 06:17:31;;;;;;;6.68;4.22;;;27.80;92.70;;;;;;5098785;28;20134;-75
2022/06/30 06:19:57;;;;;;;4.75;4.22;;;28.30;91.90;;;;;;5082336;28;20044;-74
2022/06/30 06:22:23;;;;;;;5.47;4.97;;;28.00;90.00;;;;;;5096968;28;20106;-74
2022/06/30 06:24:49;;;;;;;6.55;4.18;;;28.50;89.80;;;;;;5096571;28;20047;-75
2022/06/30 06:27:15;;;;;;;4.70;4.30;;;28.60;89.60;;;;;;5089975;28;20054;-75
2022/06/30 06:29:40;;;;;;;5.13;4.50;;;28.30;87.90;;;;;;5094643;28;20044;-74
2022/06/30 06:32:06;;;;;;;10.85;4.93;;;28.60;88.60;;;;;;5095045;28;20051;-75
2022/06/30 06:34:32;;;;;;;4.43;4.03;;;28.70;88.00;;;;;;5099276;28;20039;-75
2022/06/30 06:36:57;;;;;;;7.03;4.28;;;28.80;87.70;;;;;;5099600;28;20101;-75
2022/06/30 06:39:23;;;;;;;4.82;3.88;;;28.80;87.10;;;;;;5087411;28;20039;-75
2022/06/30 06:41:48;;;;;;;5.20;3.85;;;29.10;85.00;;;;;;5097134;28;20160;-75
2022/06/30 06:44:14;;;;;;;7.15;4.20;;;29.10;86.40;;;;;;5097431;28;20039;-73
2022/06/30 06:46:39;;;;;;;5.30;4.32;;;29.50;85.80;;;;;;5092470;28;20053;-73
2022/06/30 06:49:07;;;;;;;6.10;4.47;;;29.60;84.70;;;;;;5118260;28;20050;-73
2022/06/30 06:51:33;;;;;;;4.38;3.95;;;29.50;83.40;;;;;;5101642;28;20093;-74
2022/06/30 06:53:59;;;;;;;4.70;4.07;;;29.50;84.20;;;;;;5081008;28;20044;-73
2022/06/30 06:56:25;;;;;;;5.15;3.90;;;;;;;;;;5098447;28;20046;-72
2022/06/30 06:58:51;;;;;;;4.18;3.83;;;30.20;84.40;;;;;;5099094;28;20118;-72
2022/06/30 07:01:17;;;;;;;3.63;3.33;;;30.60;83.20;;;;;;5099429;28;20047;-72
2022/06/30 07:03:42;;;;;;;4.95;3.90;;;31.60;81.60;;;;;;5095376;28;20047;-72
2022/06/30 07:06:08;;;;;;;4.47;3.75;;;31.60;81.70;;;;;;5098506;28;20047;-72
2022/06/30 07:08:34;;;;;;;4.68;4.20;;;31.10;79.40;;;;;;5097238;28;20183;-72
2022/06/30 07:11:00;;;;;;;5.25;4.13;;;31.40;77.50;;;;;;5078502;28;20050;-72
2022/06/30 07:13:27;;;;;;;5.40;4.60;;;31.60;80.20;;;;;;5094593;28;20385;-71
2022/06/30 07:15:52;;;;;;;5.78;5.28;;;30.90;79.10;;;;;;5092520;28;20083;-72
2022/06/30 07:18:18;;;;;;;4.57;3.97;;;30.40;79.10;;;;;;5100614;28;20032;-72
2022/06/30 07:20:44;;;;;;;7.65;4.57;;;30.90;80.80;;;;;;5085480;28;20043;-72
2022/06/30 07:23:10;;;;;;;5.55;4.30;;;30.80;79.00;;;;;;5096061;28;20039;-72
2022/06/30 07:25:35;;;;;;;5.05;4.60;;;30.90;79.40;;;;;;5092617;28;20039;-73
2022/06/30 07:28:02;;;;;;;4.53;4.22;;;31.10;79.00;;;;;;5094246;28;20123;-72
2022/06/30 07:30:27;;;;;;;4.75;4.20;;;31.10;78.30;;;;;;5093469;28;20116;-72
2022/06/30 07:32:53;;;;;;;4.50;4.10;;;31.40;76.90;;;;;;5094489;28;20487;-71
2022/06/30 07:35:19;;;;;;;4.63;4.22;;;31.30;75.40;;;;;;5095805;28;20122;-73
2022/06/30 07:37:45;;;;;;;4.10;3.70;;;31.30;77.30;;;;;;5079492;28;20042;-73
2022/06/30 07:40:12;;;;;;;3.92;3.63;;;31.50;78.10;;;;;;5075265;28;20040;-72
2022/06/30 07:42:38;;;;;;;5.70;4.82;;;31.90;78.40;;;;;;5104490;28;20040;-72
2022/06/30 07:45:05;;;;;;;5.45;4.93;;;32.30;77.20;;;;;;5081766;28;20114;-73
2022/06/30 07:47:31;;;;;;;5.88;4.65;;;32.50;75.00;;;;;;5094516;28;20051;-72
2022/06/30 07:49:57;;;;;;;6.07;4.85;;;31.90;74.70;;;;;;5095692;28;20051;-72
2022/06/30 07:52:23;;;;;;;5.90;4.80;;;30.90;76.80;;;;;;5095242;28;20049;-73
2022/06/30 07:54:50;;;;;;;4.68;4.28;;;31.40;77.70;;;;;;5078167;28;20504;-72
2022/06/30 07:57:17;;;;;;;3.60;3.30;;;31.90;77.50;;;;;;5093829;28;20047;-72
2022/06/30 07:59:42;;;;;;;5.15;4.70;;;32.50;76.90;;;;;;5090181;28;20040;-72
2022/06/30 08:02:08;;;;;;;4.32;4.03;;;32.30;76.20;;;;;;5095072;28;20123;-73
2022/06/30 08:04:34;;;;;;;7.00;5.22;;;32.70;74.60;;;;;;5094878;28;20070;-72
2022/06/30 08:07:01;;;;;;;5.15;4.13;;;31.80;74.40;;;;;;5098867;27;20062;-72
2022/06/30 08:09:28;;;;;;;4.93;4.60;;;31.90;76.70;;;;;;5093851;28;20040;-73
2022/06/30 08:11:54;;;;;;;4.97;4.57;;;31.40;76.70;;;;;;5071550;28;20071;-72
2022/06/30 08:14:21;;;;;;;5.07;4.68;;;31.30;78.00;;;;;;5089862;28;20036;-72
2022/06/30 08:16:47;;;;;;;5.20;4.80;;;30.90;78.50;;;;;;5093322;28;20054;-72
2022/06/30 08:19:13;;;;;;;7.90;5.25;;;30.80;78.30;;;;;;5093982;28;20052;-73
2022/06/30 08:21:39;;;;;;;5.90;5.45;;;29.90;79.20;;;;;;5092077;28;20035;-72
2022/06/30 08:24:04;;;;;;;5.32;4.93;;;28.80;80.40;;;;;;5075965;28;20031;-71
2022/06/30 08:26:31;;;;;;;5.10;4.70;;;28.50;82.70;;;;;;5094024;28;20135;-72
2022/06/30 08:28:57;;;;;;;4.93;4.57;;;28.40;82.90;;;;;;5074815;28;20428;-71
2022/06/30 08:31:22;;;;;;;6.05;5.00;;;28.30;84.30;;;;;;5082609;28;20130;-72
2022/06/30 08:33:50;;;;;;;6.03;5.45;;;28.30;85.00;;;;;;5094600;28;20114;-71
2022/06/30 08:36:17;;;;;;;5.20;4.70;;;28.40;83.80;;;;;;5094520;28;20670;-71
2022/06/30 08:38:42;;;;;;;6.45;5.85;;;28.10;86.20;;;;;;5081577;28;20039;-71
2022/06/30 08:43:54;;;;;;;5.78;5.32;;;27.50;87.50;;;;;;5094318;28;20048;-71
2022/06/30 08:46:22;;;;;;;5.28;4.72;;;27.20;88.00;;;;;;5083225;28;20045;-71
2022/06/30 08:48:48;;;;;;;5.68;5.18;;;27.30;89.10;;;;;;5090394;28;20047;-71
2022/06/30 08:51:15;;;;;;;7.47;6.18;;;27.30;90.20;;;;;;5081780;28;20038;-71
2022/06/30 08:53:47;;;;;;;8.60;6.60;;;27.10;89.40;;;;;;5087924;28;20088;-71
2022/06/30 08:56:13;;;;;;;5.40;5.00;;;26.70;90.40;;;;;;5091856;28;20074;-73
2022/06/30 08:58:40;;;;;;;6.22;5.45;;;26.80;90.40;;;;;;5090870;28;20042;-70
2022/06/30 09:01:06;;;;;;;7.03;6.45;;;26.80;91.40;;;;;;5090336;28;20110;-71
2022/06/30 09:03:34;;;;;;;6.55;5.88;;;26.90;90.60;;;;;;5091621;28;20461;-71
2022/06/30 09:06:00;;;;;;;7.05;6.53;;;26.90;91.00;;;;;;5092674;28;20636;-71
2022/06/30 09:08:26;;;;;;;6.57;6.00;;;26.90;90.80;;;;;;5074098;28;20392;-71
2022/06/30 09:10:55;;;;;;;7.00;6.40;;;27.00;91.10;;;;;;5111775;28;20065;-72
2022/06/30 09:13:22;;;;;;;5.93;5.38;;;26.80;91.70;;;;;;5093673;28;20493;-71
2022/06/30 09:15:49;;;;;;;7.40;6.70;;;26.90;92.00;;;;;;5092589;28;20480;-72
2022/06/30 09:18:28;;;;;;;6.18;5.65;;;27.10;91.80;;;;;;5076733;28;20122;-71
2022/06/30 09:20:55;;;;;;;7.30;5.70;;;27.20;91.80;;;;;;5093028;28;20043;-71
2022/06/30 09:23:29;;;;;;;6.57;6.00;;;27.30;91.60;;;;;;5092417;28;20112;-71
2022/06/30 09:25:57;;;;;;;7.57;6.13;;;27.60;90.80;;;;;;5076426;28;20047;-72
2022/06/30 09:28:42;;;;;;;7.63;6.88;;;27.80;90.60;;;;;;5093646;28;20043;-72
2022/06/30 09:31:12;;;;;;;7.70;7.10;;;27.70;90.40;;;;;;5092279;28;20039;-72
2022/06/30 09:33:39;;;;;;;7.25;6.65;;;27.60;91.40;;;;;;5071801;28;20039;-72
2022/06/30 09:36:26;;;;;;;8.23;7.50;;;27.70;91.40;;;;;;5087818;28;20047;-73
2022/06/30 09:38:59;;;;;;;9.38;7.57;;;27.80;91.80;;;;;;5072871;28;20066;-72
2022/06/30 09:41:33;;;;;;;7.75;7.15;;;27.80;91.00;;;;;;5090329;28;20134;-72
2022/06/30 09:43:59;;;;;;;7.40;6.75;;;27.80;91.00;;;;;;5093599;28;20035;-72
2022/06/30 09:46:24;;;;;;;6.82;6.22;;;27.80;91.40;;;;;;5090793;28;20622;-72
2022/06/30 09:48:51;;;;;;;7.85;7.20;;;28.00;91.20;;;;;;5103184;28;20043;-72
2022/06/30 09:51:17;;;;;;;8.65;7.85;;;28.10;91.50;;;;;;5091679;28;20047;-72
2022/06/30 09:54:02;;;;;;;8.43;7.57;;;28.00;91.40;;;;;;5092216;28;20055;-73
2022/06/30 09:56:28;;;;;;;8.02;7.25;;;27.80;91.30;;;;;;5093322;28;20044;-72
2022/06/30 09:58:54;;;;;;;8.07;7.47;;;27.90;90.60;;;;;;5095055;28;20039;-73
2022/06/30 10:01:19;;;;;;;8.75;7.88;;;28.20;90.50;;;;;;5109521;28;20031;-73
2022/06/30 10:03:47;;;;;;;9.13;8.35;;;28.10;91.00;;;;;;5093095;28;20043;-73
2022/06/30 10:06:15;;;;;;;9.45;8.55;;;27.90;90.60;;;;;;5076482;28;20096;-72
2022/06/30 10:08:41;;;;;;;8.65;7.85;;;28.00;90.90;;;;;;5090364;28;20084;-72
2022/06/30 10:11:08;;;;;;;7.38;6.88;;;28.10;91.00;;;;;;5091439;28;20036;-72
2022/06/30 10:13:36;;;;;;;8.77;8.05;;;28.20;91.40;;;;;;5093132;28;20078;-72
2022/06/30 10:16:04;;;;;;;8.70;6.97;;;28.00;91.10;;;;;;5091365;28;20036;-72
2022/06/30 10:18:32;;;;;;;8.45;7.75;;;28.20;90.60;;;;;;5092707;28;20027;-72
2022/06/30 10:20:58;;;;;;;9.35;8.57;;;28.40;90.80;;;;;;5092425;28;20048;-72
2022/06/30 10:23:24;;;;;;;8.80;8.00;;;28.50;90.00;;;;;;5092184;28;20484;-73
2022/06/30 10:25:51;;;;;;;8.65;7.75;;;28.20;91.00;;;;;;5090193;28;20046;-72
2022/06/30 10:28:19;;;;;;;8.05;7.45;;;28.10;91.10;;;;;;5090330;28;20119;-72
2022/06/30 10:30:48;;;;;;;8.55;7.63;;;28.10;91.20;;;;;;5092202;28;20058;-72
2022/06/30 10:33:25;;;;;;;8.40;7.70;;;28.10;91.60;;;;;;5073084;28;20044;-72
2022/06/30 10:36:05;;;;;;;7.93;7.18;;;27.90;91.20;;;;;;5081414;28;20039;-72
2022/06/30 10:38:57;;;;;;;9.15;7.40;;;28.20;91.10;;;;;;5090416;28;20038;-72
2022/06/30 10:41:24;;;;;;;9.18;8.48;;;28.20;92.00;;;;;;5072267;28;20180;-72
2022/06/30 10:44:05;;;;;;;7.75;7.03;;;28.20;91.30;;;;;;5089538;28;20048;-72
2022/06/30 10:46:57;;;;;;;6.93;6.32;;;28.40;92.10;;;;;;5096290;28;20050;-72
2022/06/30 10:49:27;;;;;;;8.30;7.50;;;28.40;91.20;;;;;;5090869;28;20046;-73
2022/06/30 10:52:16;;;;;;;7.70;6.97;;;28.50;91.80;;;;;;5096447;28;20396;-72
2022/06/30 10:54:45;;;;;;;8.02;7.32;;;28.80;91.20;;;;;;5079478;28;20057;-72
2022/06/30 10:57:12;;;;;;;8.90;8.10;;;29.20;90.70;;;;;;5094815;28;20134;-72
2022/06/30 10:59:42;;;;;;;8.77;7.85;;;29.30;90.30;;;;;;5094613;28;20036;-72
2022/06/30 11:02:11;;;;;;;9.95;9.13;;;29.40;89.70;;;;;;5074591;28;20112;-72
2022/06/30 11:04:51;;;;;;;152.25;20.02;;;29.40;89.20;;;;;;5096588;28;20058;-72
2022/06/30 11:07:24;;;;;;;15.00;8.05;;;29.40;90.40;;;;;;5096308;28;20039;-72
2022/06/30 11:09:55;;;;;;;8.98;8.32;;;29.60;90.30;;;;;;5096168;28;20487;-72
2022/06/30 11:12:24;;;;;;;9.23;8.43;;;29.70;88.80;;;;;;5094693;28;20043;-72
2022/06/30 11:14:52;;;;;;;9.70;8.90;;;29.90;87.70;;;;;;5078059;28;20081;-73
2022/06/30 11:17:23;;;;;;;9.38;8.57;;;30.10;87.00;;;;;;5093742;28;20489;-73
2022/06/30 11:20:01;;;;;;;25.33;7.70;;;30.20;86.50;;;;;;5086300;28;20057;-73
2022/06/30 11:22:29;;;;;;;7.35;6.75;;;30.30;85.80;;;;;;5073487;28;20100;-73
2022/06/30 11:24:57;;;;;;;9.75;6.32;;;30.50;84.10;;;;;;5101431;28;20487;-72
2022/06/30 11:27:24;;;;;;;6.28;5.68;;;30.50;85.20;;;;;;5096633;28;20054;-72
2022/06/30 11:29:58;;;;;;;7.40;4.68;;;30.50;85.70;;;;;;5096640;28;20070;-73
2022/06/30 11:32:25;;;;;;;4.18;3.78;;;30.50;84.20;;;;;;5080999;28;20381;-73
2022/06/30 11:34:52;;;;;;;3.78;3.47;;;30.50;81.00;;;;;;5088402;28;20035;-72
2022/06/30 11:37:22;;;;;;;4.38;3.40;;;30.30;81.70;;;;;;5094723;28;20052;-73
2022/06/30 11:40:05;;;;;;;3.55;3.10;;;30.30;80.80;;;;;;5093809;28;20769;-72
2022/06/30 11:42:32;;;;;;;3.67;3.10;;;30.20;81.60;;;;;;5084097;28;20055;-73
2022/06/30 11:44:58;;;;;;;4.57;3.47;;;30.20;81.50;;;;;;5114517;28;20032;-72
2022/06/30 11:47:24;;;;;;;6.57;3.88;;;30.10;81.50;;;;;;5096115;28;20750;-73
2022/06/30 11:49:52;;;;;;;4.72;4.32;;;30.10;81.70;;;;;;5096321;28;20148;-72
2022/06/30 11:52:28;;;;;;;5.45;4.88;;;30.20;82.60;;;;;;5096575;28;20178;-72
2022/06/30 11:54:59;;;;;;;6.45;4.43;;;30.10;82.00;;;;;;5096120;28;20463;-72
2022/06/30 11:57:31;;;;;;;5.50;4.93;;;30.00;82.00;;;;;;5095917;28;20035;-72
2022/06/30 12:00:07;;;;;;;6.82;4.82;;;30.10;82.70;;;;;;5096720;28;20047;-73
2022/06/30 12:02:35;;;;;;;5.25;4.85;;;30.10;82.80;;;;;;5094036;28;20076;-73
2022/06/30 12:05:03;;;;;;;5.95;5.30;;;30.20;83.50;;;;;;5092915;28;20055;-73
2022/06/30 12:07:30;;;;;;;5.35;4.85;;;30.50;82.50;;;;;;5095264;28;20088;-73
2022/06/30 12:09:56;;;;;;;5.03;4.50;;;30.50;81.00;;;;;;5094045;28;20048;-72
2022/06/30 12:12:27;;;;;;;32.60;6.85;;;30.40;80.50;;;;;;5095426;28;20046;-73
2022/06/30 12:14:55;;;;;;;6.35;5.75;;;30.50;82.30;;;;;;5099527;28;20058;-72
2022/06/30 12:17:21;;;;;;;7.10;5.40;;;30.20;79.20;;;;;;5094990;28;20384;-72
2022/06/30 12:19:50;;;;;;;5.45;4.93;;;30.30;82.20;;;;;;5089446;28;20119;-72
2022/06/30 12:22:16;;;;;;;7.55;5.60;;;30.50;81.60;;;;;;5109403;27;20032;-72
2022/06/30 12:24:45;;;;;;;10.85;6.53;;;30.30;81.40;;;;;;5074642;28;20043;-72
2022/06/30 12:27:26;;;;;;;8.60;5.60;;;30.50;81.20;;;;;;5087756;28;20075;-72
2022/06/30 12:29:57;;;;;;;6.25;5.10;;;30.80;81.40;;;;;;5093415;28;20036;-72
2022/06/30 12:32:22;;;;;;;5.97;5.47;;;30.80;79.90;;;;;;5107706;28;20051;-73
2022/06/30 12:34:53;;;;;;;6.38;5.30;;;30.50;80.30;;;;;;5104050;28;20377;-73
2022/06/30 12:37:29;;;;;;;6.57;5.20;;;30.10;79.30;;;;;;5083914;28;20040;-73
2022/06/30 12:39:57;;;;;;;5.25;4.82;;;29.60;78.90;;;;;;5103352;27;20043;-72
2022/06/30 12:42:23;;;;;;;5.82;5.32;;;29.90;80.20;;;;;;5094748;28;20043;-72
2022/06/30 12:44:48;;;;;;;4.88;4.40;;;29.60;76.00;;;;;;5111598;28;20039;-73
2022/06/30 12:47:14;;;;;;;4.78;4.18;;;29.50;81.00;;;;;;5092358;28;20134;-72
2022/06/30 12:49:41;;;;;;;4.85;4.25;;;29.40;79.50;;;;;;5094682;28;20047;-72
2022/06/30 12:52:14;;;;;;;9.73;4.05;;;29.20;80.30;;;;;;5090705;28;20481;-73
2022/06/30 12:55:09;;;;;;;6.85;4.47;;;29.30;81.70;;;;;;5091399;28;20066;-72
2022/06/30 12:57:36;;;;;;;5.53;4.90;;;29.50;80.60;;;;;;5068280;28;20078;-74
2022/06/30 13:00:03;;;;;;;6.13;4.82;;;29.90;82.50;;;;;;5083954;28;20040;-74